sensor_id;sensor_type;location;lat;lon;timestamp;P1;durP1;ratioP1;P2;durP2;ratioP2
1995;SDS011;38556;47.068;15.408;2023-11-21T00:00:34;39.00;;;35.90;;
1995;SDS011;38556;47.068;15.408;2023-11-21T00:03:02;38.05;;;34.95;;
1995;SDS011;38556;47.068;15.408;2023-11-21T00:05:31;39.97;;;36.85;;
1995;SDS011;38556;47.068;15.408;2023-11-21T00:07:58;38.88;;;35.78;;
1995;SDS011;38556;47.068;15.408;2023-11-21T00:10:26;38.67;;;35.58;;
1995;SDS011;38556;47.068;15.408;2023-11-21T00:12:53;39.17;;;36.28;;
1995;SDS011;38556;47.068;15.408;2023-11-21T00:15:21;39.95;;;36.40;;
1995;SDS011;38556;47.068;15.408;2023-11-21T00:17:49;38.55;;;35.45;;
1995;SDS011;38556;47.068;15.408;2023-11-21T00:20:16;38.85;;;35.90;;
1995;SDS011;38556;47.068;15.408;2023-11-21T00:22:45;38.75;;;35.85;;
1995;SDS011;38556;47.068;15.408;2023-11-21T00:25:13;38.67;;;35.50;;
1995;SDS011;38556;47.068;15.408;2023-11-21T00:27:42;38.85;;;35.47;;
1995;SDS011;38556;47.068;15.408;2023-11-21T00:30:10;39.28;;;36.13;;
1995;SDS011;38556;47.068;15.408;2023-11-21T00:32:38;40.17;;;36.75;;
1995;SDS011;38556;47.068;15.408;2023-11-21T00:35:06;38.92;;;35.83;;
1995;SDS011;38556;47.068;15.408;2023-11-21T00:37:33;40.55;;;37.45;;
1995;SDS011;38556;47.068;15.408;2023-11-21T00:40:02;39.47;;;36.40;;
1995;SDS011;38556;47.068;15.408;2023-11-21T00:42:31;40.05;;;36.85;;
1995;SDS011;38556;47.068;15.408;2023-11-21T00:44:59;39.40;;;36.03;;
1995;SDS011;38556;47.068;15.408;2023-11-21T00:47:26;39.80;;;36.42;;
1995;SDS011;38556;47.068;15.408;2023-11-21T00:49:53;37.75;;;34.80;;
1995;SDS011;38556;47.068;15.408;2023-11-21T00:52:22;35.83;;;33.03;;
1995;SDS011;38556;47.068;15.408;2023-11-21T00:54:49;39.20;;;35.90;;
1995;SDS011;38556;47.068;15.408;2023-11-21T00:57:19;39.38;;;35.97;;
1995;SDS011;38556;47.068;15.408;2023-11-21T00:59:46;39.85;;;36.75;;
1995;SDS011;38556;47.068;15.408;2023-11-21T01:02:14;42.88;;;39.50;;
1995;SDS011;38556;47.068;15.408;2023-11-21T01:04:41;39.83;;;36.72;;
1995;SDS011;38556;47.068;15.408;2023-11-21T01:07:09;40.63;;;37.42;;
1995;SDS011;38556;47.068;15.408;2023-11-21T01:09:36;39.17;;;35.90;;
1995;SDS011;38556;47.068;15.408;2023-11-21T01:12:04;40.10;;;36.90;;
1995;SDS011;38556;47.068;15.408;2023-11-21T01:14:33;43.78;;;40.17;;
1995;SDS011;38556;47.068;15.408;2023-11-21T01:17:02;44.10;;;40.33;;
1995;SDS011;38556;47.068;15.408;2023-11-21T01:19:30;45.85;;;42.03;;
1995;SDS011;38556;47.068;15.408;2023-11-21T01:21:57;46.65;;;42.63;;
1995;SDS011;38556;47.068;15.408;2023-11-21T01:24:25;48.20;;;44.00;;
1995;SDS011;38556;47.068;15.408;2023-11-21T01:26:52;48.90;;;44.75;;
1995;SDS011;38556;47.068;15.408;2023-11-21T01:29:20;48.05;;;43.50;;
1995;SDS011;38556;47.068;15.408;2023-11-21T01:31:48;44.97;;;41.03;;
1995;SDS011;38556;47.068;15.408;2023-11-21T01:34:16;40.65;;;37.35;;
1995;SDS011;38556;47.068;15.408;2023-11-21T01:36:45;41.00;;;38.05;;
1995;SDS011;38556;47.068;15.408;2023-11-21T01:39:12;41.38;;;37.97;;
1995;SDS011;38556;47.068;15.408;2023-11-21T01:41:42;41.30;;;38.20;;
1995;SDS011;38556;47.068;15.408;2023-11-21T01:44:10;42.22;;;38.72;;
1995;SDS011;38556;47.068;15.408;2023-11-21T01:46:39;40.63;;;37.40;;
1995;SDS011;38556;47.068;15.408;2023-11-21T01:49:08;43.13;;;39.55;;
1995;SDS011;38556;47.068;15.408;2023-11-21T01:51:39;42.25;;;38.83;;
1995;SDS011;38556;47.068;15.408;2023-11-21T01:54:08;40.17;;;36.85;;
1995;SDS011;38556;47.068;15.408;2023-11-21T01:56:37;42.15;;;38.80;;
1995;SDS011;38556;47.068;15.408;2023-11-21T01:59:05;41.10;;;37.90;;
1995;SDS011;38556;47.068;15.408;2023-11-21T02:01:32;40.83;;;37.40;;
1995;SDS011;38556;47.068;15.408;2023-11-21T02:04:00;40.10;;;36.90;;
1995;SDS011;38556;47.068;15.408;2023-11-21T02:06:29;39.97;;;36.65;;
1995;SDS011;38556;47.068;15.408;2023-11-21T02:08:57;39.63;;;36.22;;
1995;SDS011;38556;47.068;15.408;2023-11-21T02:11:25;40.78;;;37.45;;
1995;SDS011;38556;47.068;15.408;2023-11-21T02:13:53;37.28;;;34.28;;
1995;SDS011;38556;47.068;15.408;2023-11-21T02:16:20;37.95;;;34.60;;
1995;SDS011;38556;47.068;15.408;2023-11-21T02:18:48;38.42;;;35.50;;
1995;SDS011;38556;47.068;15.408;2023-11-21T02:21:16;37.63;;;34.53;;
1995;SDS011;38556;47.068;15.408;2023-11-21T02:23:45;37.55;;;34.80;;
1995;SDS011;38556;47.068;15.408;2023-11-21T02:26:13;36.33;;;33.53;;
1995;SDS011;38556;47.068;15.408;2023-11-21T02:28:42;36.83;;;34.13;;
1995;SDS011;38556;47.068;15.408;2023-11-21T02:31:10;37.50;;;34.50;;
1995;SDS011;38556;47.068;15.408;2023-11-21T02:33:38;36.20;;;33.50;;
1995;SDS011;38556;47.068;15.408;2023-11-21T02:36:05;37.35;;;34.22;;
1995;SDS011;38556;47.068;15.408;2023-11-21T02:38:33;35.60;;;32.95;;
1995;SDS011;38556;47.068;15.408;2023-11-21T02:41:02;35.05;;;32.35;;
1995;SDS011;38556;47.068;15.408;2023-11-21T02:43:30;36.08;;;33.38;;
1995;SDS011;38556;47.068;15.408;2023-11-21T02:45:57;35.85;;;33.25;;
1995;SDS011;38556;47.068;15.408;2023-11-21T02:48:24;35.10;;;32.60;;
1995;SDS011;38556;47.068;15.408;2023-11-21T02:50:51;36.53;;;33.83;;
1995;SDS011;38556;47.068;15.408;2023-11-21T02:53:19;34.95;;;32.45;;
1995;SDS011;38556;47.068;15.408;2023-11-21T02:55:46;35.72;;;33.15;;
1995;SDS011;38556;47.068;15.408;2023-11-21T02:58:15;35.17;;;32.67;;
1995;SDS011;38556;47.068;15.408;2023-11-21T03:00:42;34.80;;;32.42;;
1995;SDS011;38556;47.068;15.408;2023-11-21T03:03:10;35.92;;;33.22;;
1995;SDS011;38556;47.068;15.408;2023-11-21T03:05:37;36.85;;;34.08;;
1995;SDS011;38556;47.068;15.408;2023-11-21T03:08:05;38.13;;;35.35;;
1995;SDS011;38556;47.068;15.408;2023-11-21T03:10:32;42.47;;;39.47;;
1995;SDS011;38556;47.068;15.408;2023-11-21T03:13:00;43.45;;;40.65;;
1995;SDS011;38556;47.068;15.408;2023-11-21T03:15:28;41.05;;;38.45;;
1995;SDS011;38556;47.068;15.408;2023-11-21T03:17:57;42.95;;;39.92;;
1995;SDS011;38556;47.068;15.408;2023-11-21T03:20:25;42.55;;;39.65;;
1995;SDS011;38556;47.068;15.408;2023-11-21T03:22:52;41.72;;;38.92;;
1995;SDS011;38556;47.068;15.408;2023-11-21T03:25:20;42.50;;;39.33;;
1995;SDS011;38556;47.068;15.408;2023-11-21T03:27:49;41.75;;;38.75;;
1995;SDS011;38556;47.068;15.408;2023-11-21T03:30:16;41.83;;;38.92;;
1995;SDS011;38556;47.068;15.408;2023-11-21T03:32:45;38.85;;;36.10;;
1995;SDS011;38556;47.068;15.408;2023-11-21T03:35:13;41.25;;;38.55;;
1995;SDS011;38556;47.068;15.408;2023-11-21T03:37:40;41.72;;;38.92;;
1995;SDS011;38556;47.068;15.408;2023-11-21T03:40:09;41.85;;;39.13;;
1995;SDS011;38556;47.068;15.408;2023-11-21T03:42:37;43.92;;;41.03;;
1995;SDS011;38556;47.068;15.408;2023-11-21T03:45:05;42.17;;;39.47;;
1995;SDS011;38556;47.068;15.408;2023-11-21T03:47:34;40.15;;;37.20;;
1995;SDS011;38556;47.068;15.408;2023-11-21T03:50:03;41.13;;;38.53;;
1995;SDS011;38556;47.068;15.408;2023-11-21T03:52:31;41.33;;;38.53;;
1995;SDS011;38556;47.068;15.408;2023-11-21T03:54:59;42.88;;;39.95;;
1995;SDS011;38556;47.068;15.408;2023-11-21T03:57:26;42.42;;;39.60;;
1995;SDS011;38556;47.068;15.408;2023-11-21T03:59:54;43.70;;;40.92;;
1995;SDS011;38556;47.068;15.408;2023-11-21T04:02:21;42.28;;;39.45;;
1995;SDS011;38556;47.068;15.408;2023-11-21T04:04:50;41.58;;;38.65;;
1995;SDS011;38556;47.068;15.408;2023-11-21T04:07:19;41.72;;;38.75;;
1995;SDS011;38556;47.068;15.408;2023-11-21T04:09:47;42.13;;;39.30;;
1995;SDS011;38556;47.068;15.408;2023-11-21T04:12:14;41.47;;;38.67;;
1995;SDS011;38556;47.068;15.408;2023-11-21T04:14:41;45.03;;;41.60;;
1995;SDS011;38556;47.068;15.408;2023-11-21T04:17:09;43.55;;;40.35;;
1995;SDS011;38556;47.068;15.408;2023-11-21T04:19:36;44.47;;;41.60;;
1995;SDS011;38556;47.068;15.408;2023-11-21T04:22:04;42.03;;;39.15;;
1995;SDS011;38556;47.068;15.408;2023-11-21T04:24:32;44.05;;;41.22;;
1995;SDS011;38556;47.068;15.408;2023-11-21T04:26:59;43.35;;;40.42;;
1995;SDS011;38556;47.068;15.408;2023-11-21T04:29:28;43.38;;;40.58;;
1995;SDS011;38556;47.068;15.408;2023-11-21T04:31:56;41.83;;;39.15;;
1995;SDS011;38556;47.068;15.408;2023-11-21T04:34:23;44.15;;;41.15;;
1995;SDS011;38556;47.068;15.408;2023-11-21T04:36:50;43.90;;;40.80;;
1995;SDS011;38556;47.068;15.408;2023-11-21T04:39:18;44.45;;;41.45;;
1995;SDS011;38556;47.068;15.408;2023-11-21T04:41:46;47.03;;;43.92;;
1995;SDS011;38556;47.068;15.408;2023-11-21T04:44:13;44.78;;;41.83;;
1995;SDS011;38556;47.068;15.408;2023-11-21T04:46:42;44.05;;;41.25;;
1995;SDS011;38556;47.068;15.408;2023-11-21T04:49:09;42.90;;;39.92;;
1995;SDS011;38556;47.068;15.408;2023-11-21T04:51:37;44.50;;;41.80;;
1995;SDS011;38556;47.068;15.408;2023-11-21T04:54:04;42.15;;;39.30;;
1995;SDS011;38556;47.068;15.408;2023-11-21T04:56:32;43.90;;;41.05;;
1995;SDS011;38556;47.068;15.408;2023-11-21T04:59:01;45.90;;;43.00;;
1995;SDS011;38556;47.068;15.408;2023-11-21T05:01:28;53.85;;;50.65;;
1995;SDS011;38556;47.068;15.408;2023-11-21T05:03:55;53.78;;;50.67;;
1995;SDS011;38556;47.068;15.408;2023-11-21T05:06:23;50.70;;;47.38;;
1995;SDS011;38556;47.068;15.408;2023-11-21T05:08:50;57.10;;;54.08;;
1995;SDS011;38556;47.068;15.408;2023-11-21T05:11:24;57.08;;;53.97;;
1995;SDS011;38556;47.068;15.408;2023-11-21T05:13:52;57.30;;;53.63;;
1995;SDS011;38556;47.068;15.408;2023-11-21T05:16:22;56.78;;;53.38;;
1995;SDS011;38556;47.068;15.408;2023-11-21T05:18:53;54.97;;;51.75;;
1995;SDS011;38556;47.068;15.408;2023-11-21T05:21:25;54.60;;;51.20;;
1995;SDS011;38556;47.068;15.408;2023-11-21T05:23:53;52.92;;;49.50;;
1995;SDS011;38556;47.068;15.408;2023-11-21T05:26:20;59.72;;;56.33;;
1995;SDS011;38556;47.068;15.408;2023-11-21T05:28:48;61.65;;;58.13;;
1995;SDS011;38556;47.068;15.408;2023-11-21T05:31:15;56.80;;;53.50;;
1995;SDS011;38556;47.068;15.408;2023-11-21T05:33:44;55.72;;;52.38;;
1995;SDS011;38556;47.068;15.408;2023-11-21T05:36:12;60.83;;;57.53;;
1995;SDS011;38556;47.068;15.408;2023-11-21T05:38:39;56.00;;;52.75;;
1995;SDS011;38556;47.068;15.408;2023-11-21T05:41:07;54.90;;;51.70;;
1995;SDS011;38556;47.068;15.408;2023-11-21T05:43:36;57.40;;;53.97;;
1995;SDS011;38556;47.068;15.408;2023-11-21T05:46:04;58.95;;;55.47;;
1995;SDS011;38556;47.068;15.408;2023-11-21T05:48:32;59.00;;;55.35;;
1995;SDS011;38556;47.068;15.408;2023-11-21T05:51:04;62.35;;;58.50;;
1995;SDS011;38556;47.068;15.408;2023-11-21T05:53:32;61.30;;;57.47;;
1995;SDS011;38556;47.068;15.408;2023-11-21T05:55:59;60.65;;;56.75;;
1995;SDS011;38556;47.068;15.408;2023-11-21T05:58:27;67.30;;;63.20;;
1995;SDS011;38556;47.068;15.408;2023-11-21T06:00:54;57.90;;;54.28;;
1995;SDS011;38556;47.068;15.408;2023-11-21T06:03:22;57.10;;;53.60;;
1995;SDS011;38556;47.068;15.408;2023-11-21T06:05:49;61.50;;;57.80;;
1995;SDS011;38556;47.068;15.408;2023-11-21T06:08:18;62.72;;;59.05;;
1995;SDS011;38556;47.068;15.408;2023-11-21T06:10:45;62.38;;;58.75;;
1995;SDS011;38556;47.068;15.408;2023-11-21T06:13:14;60.50;;;57.00;;
1995;SDS011;38556;47.068;15.408;2023-11-21T06:15:42;63.33;;;59.33;;
1995;SDS011;38556;47.068;15.408;2023-11-21T06:18:09;52.10;;;48.95;;
1995;SDS011;38556;47.068;15.408;2023-11-21T06:20:37;58.10;;;54.30;;
1995;SDS011;38556;47.068;15.408;2023-11-21T06:23:04;62.55;;;58.65;;
1995;SDS011;38556;47.068;15.408;2023-11-21T06:25:33;61.45;;;57.00;;
1995;SDS011;38556;47.068;15.408;2023-11-21T06:28:01;57.80;;;53.78;;
1995;SDS011;38556;47.068;15.408;2023-11-21T06:30:29;61.80;;;57.72;;
1995;SDS011;38556;47.068;15.408;2023-11-21T06:32:57;62.80;;;58.45;;
1995;SDS011;38556;47.068;15.408;2023-11-21T06:35:24;59.35;;;55.55;;
1995;SDS011;38556;47.068;15.408;2023-11-21T06:37:53;57.13;;;53.17;;
1995;SDS011;38556;47.068;15.408;2023-11-21T06:40:20;61.08;;;56.60;;
1995;SDS011;38556;47.068;15.408;2023-11-21T06:42:49;57.13;;;53.03;;
1995;SDS011;38556;47.068;15.408;2023-11-21T06:45:17;61.97;;;58.13;;
1995;SDS011;38556;47.068;15.408;2023-11-21T06:47:45;64.75;;;60.45;;
1995;SDS011;38556;47.068;15.408;2023-11-21T06:50:13;64.60;;;60.33;;
1995;SDS011;38556;47.068;15.408;2023-11-21T06:52:41;58.03;;;54.38;;
1995;SDS011;38556;47.068;15.408;2023-11-21T06:55:08;54.70;;;50.90;;
1995;SDS011;38556;47.068;15.408;2023-11-21T06:57:36;57.25;;;53.53;;
1995;SDS011;38556;47.068;15.408;2023-11-21T07:00:06;58.15;;;54.35;;
1995;SDS011;38556;47.068;15.408;2023-11-21T07:02:35;56.80;;;53.17;;
1995;SDS011;38556;47.068;15.408;2023-11-21T07:05:03;60.95;;;56.80;;
1995;SDS011;38556;47.068;15.408;2023-11-21T07:07:31;100.95;;;91.07;;
1995;SDS011;38556;47.068;15.408;2023-11-21T07:10:00;140.43;;;103.85;;
1995;SDS011;38556;47.068;15.408;2023-11-21T07:12:29;153.40;;;110.57;;
1995;SDS011;38556;47.068;15.408;2023-11-21T07:14:56;115.05;;;93.80;;
1995;SDS011;38556;47.068;15.408;2023-11-21T07:17:26;88.53;;;79.93;;
1995;SDS011;38556;47.068;15.408;2023-11-21T07:19:53;61.75;;;57.53;;
1995;SDS011;38556;47.068;15.408;2023-11-21T07:22:21;55.40;;;51.90;;
1995;SDS011;38556;47.068;15.408;2023-11-21T07:24:48;58.03;;;54.13;;
1995;SDS011;38556;47.068;15.408;2023-11-21T07:27:17;56.20;;;52.60;;
1995;SDS011;38556;47.068;15.408;2023-11-21T07:29:44;56.10;;;52.47;;
1995;SDS011;38556;47.068;15.408;2023-11-21T07:32:12;55.17;;;51.65;;
1995;SDS011;38556;47.068;15.408;2023-11-21T07:34:41;60.03;;;56.20;;
1995;SDS011;38556;47.068;15.408;2023-11-21T07:37:09;54.90;;;51.40;;
1995;SDS011;38556;47.068;15.408;2023-11-21T07:39:36;53.78;;;50.33;;
1995;SDS011;38556;47.068;15.408;2023-11-21T07:42:07;54.55;;;51.08;;
1995;SDS011;38556;47.068;15.408;2023-11-21T07:44:36;55.83;;;52.53;;
1995;SDS011;38556;47.068;15.408;2023-11-21T07:47:04;53.85;;;50.45;;
1995;SDS011;38556;47.068;15.408;2023-11-21T07:49:31;56.08;;;52.35;;
1995;SDS011;38556;47.068;15.408;2023-11-21T07:52:00;53.38;;;49.97;;
1995;SDS011;38556;47.068;15.408;2023-11-21T07:54:27;54.47;;;51.08;;
1995;SDS011;38556;47.068;15.408;2023-11-21T07:56:56;53.50;;;50.17;;
1995;SDS011;38556;47.068;15.408;2023-11-21T07:59:23;53.50;;;50.30;;
1995;SDS011;38556;47.068;15.408;2023-11-21T08:01:50;54.20;;;50.63;;
1995;SDS011;38556;47.068;15.408;2023-11-21T08:04:18;66.13;;;61.83;;
1995;SDS011;38556;47.068;15.408;2023-11-21T08:06:45;59.92;;;55.83;;
1995;SDS011;38556;47.068;15.408;2023-11-21T08:09:14;60.35;;;56.45;;
1995;SDS011;38556;47.068;15.408;2023-11-21T08:11:43;62.20;;;58.35;;
1995;SDS011;38556;47.068;15.408;2023-11-21T08:14:11;68.03;;;63.65;;
1995;SDS011;38556;47.068;15.408;2023-11-21T08:16:38;73.70;;;68.45;;
1995;SDS011;38556;47.068;15.408;2023-11-21T08:19:06;71.68;;;66.32;;
1995;SDS011;38556;47.068;15.408;2023-11-21T08:21:34;80.28;;;74.47;;
1995;SDS011;38556;47.068;15.408;2023-11-21T08:24:03;101.10;;;93.25;;
1995;SDS011;38556;47.068;15.408;2023-11-21T08:26:33;119.60;;;109.63;;
1995;SDS011;38556;47.068;15.408;2023-11-21T08:29:00;123.43;;;112.85;;
1995;SDS011;38556;47.068;15.408;2023-11-21T08:31:28;129.15;;;118.15;;
1995;SDS011;38556;47.068;15.408;2023-11-21T08:33:56;142.40;;;131.50;;
1995;SDS011;38556;47.068;15.408;2023-11-21T08:36:23;133.98;;;123.28;;
1995;SDS011;38556;47.068;15.408;2023-11-21T08:38:51;132.13;;;120.88;;
1995;SDS011;38556;47.068;15.408;2023-11-21T08:41:18;131.70;;;120.40;;
1995;SDS011;38556;47.068;15.408;2023-11-21T08:43:49;103.80;;;95.40;;
1995;SDS011;38556;47.068;15.408;2023-11-21T08:46:17;122.30;;;111.78;;
1995;SDS011;38556;47.068;15.408;2023-11-21T08:48:44;99.53;;;91.82;;
1995;SDS011;38556;47.068;15.408;2023-11-21T08:51:12;99.63;;;91.72;;
1995;SDS011;38556;47.068;15.408;2023-11-21T08:53:41;107.70;;;98.97;;
1995;SDS011;38556;47.068;15.408;2023-11-21T08:56:11;101.15;;;93.20;;
1995;SDS011;38556;47.068;15.408;2023-11-21T08:58:39;97.25;;;89.45;;
1995;SDS011;38556;47.068;15.408;2023-11-21T09:01:08;98.07;;;90.18;;
1995;SDS011;38556;47.068;15.408;2023-11-21T09:03:37;89.03;;;81.85;;
1995;SDS011;38556;47.068;15.408;2023-11-21T09:06:05;90.47;;;83.53;;
1995;SDS011;38556;47.068;15.408;2023-11-21T09:08:34;90.85;;;83.80;;
1995;SDS011;38556;47.068;15.408;2023-11-21T09:11:03;83.55;;;76.95;;
1995;SDS011;38556;47.068;15.408;2023-11-21T09:13:31;82.82;;;75.43;;
1995;SDS011;38556;47.068;15.408;2023-11-21T09:15:58;80.78;;;74.38;;
1995;SDS011;38556;47.068;15.408;2023-11-21T09:18:27;76.03;;;70.10;;
1995;SDS011;38556;47.068;15.408;2023-11-21T09:20:54;76.40;;;70.40;;
1995;SDS011;38556;47.068;15.408;2023-11-21T09:23:22;83.80;;;77.40;;
1995;SDS011;38556;47.068;15.408;2023-11-21T09:25:50;80.05;;;73.95;;
1995;SDS011;38556;47.068;15.408;2023-11-21T09:28:20;77.55;;;71.57;;
1995;SDS011;38556;47.068;15.408;2023-11-21T09:30:47;76.38;;;70.38;;
1995;SDS011;38556;47.068;15.408;2023-11-21T09:33:16;80.20;;;74.18;;
1995;SDS011;38556;47.068;15.408;2023-11-21T09:35:45;86.15;;;79.95;;
1995;SDS011;38556;47.068;15.408;2023-11-21T09:38:13;77.05;;;71.00;;
1995;SDS011;38556;47.068;15.408;2023-11-21T09:40:40;87.90;;;82.00;;
1995;SDS011;38556;47.068;15.408;2023-11-21T09:43:09;88.20;;;82.10;;
1995;SDS011;38556;47.068;15.408;2023-11-21T09:45:44;71.68;;;66.65;;
1995;SDS011;38556;47.068;15.408;2023-11-21T09:48:14;69.18;;;64.78;;
1995;SDS011;38556;47.068;15.408;2023-11-21T09:50:42;69.22;;;64.53;;
1995;SDS011;38556;47.068;15.408;2023-11-21T09:53:16;70.57;;;65.63;;
1995;SDS011;38556;47.068;15.408;2023-11-21T09:55:47;70.03;;;64.72;;
1995;SDS011;38556;47.068;15.408;2023-11-21T09:58:18;65.03;;;60.55;;
1995;SDS011;38556;47.068;15.408;2023-11-21T10:00:48;71.68;;;66.55;;
1995;SDS011;38556;47.068;15.408;2023-11-21T10:03:19;71.18;;;66.10;;
1995;SDS011;38556;47.068;15.408;2023-11-21T10:05:46;68.65;;;63.40;;
1995;SDS011;38556;47.068;15.408;2023-11-21T10:08:18;64.93;;;60.47;;
1995;SDS011;38556;47.068;15.408;2023-11-21T10:10:49;59.33;;;54.88;;
1995;SDS011;38556;47.068;15.408;2023-11-21T10:13:20;60.90;;;56.70;;
1995;SDS011;38556;47.068;15.408;2023-11-21T10:15:49;58.65;;;54.35;;
1995;SDS011;38556;47.068;15.408;2023-11-21T10:18:17;64.22;;;59.55;;
1995;SDS011;38556;47.068;15.408;2023-11-21T10:20:44;60.33;;;55.85;;
1995;SDS011;38556;47.068;15.408;2023-11-21T10:23:19;60.15;;;56.03;;
1995;SDS011;38556;47.068;15.408;2023-11-21T10:25:47;58.72;;;54.22;;
1995;SDS011;38556;47.068;15.408;2023-11-21T10:28:15;57.03;;;53.08;;
1995;SDS011;38556;47.068;15.408;2023-11-21T10:30:42;55.92;;;52.10;;
1995;SDS011;38556;47.068;15.408;2023-11-21T10:33:10;54.90;;;51.00;;
1995;SDS011;38556;47.068;15.408;2023-11-21T10:35:38;58.42;;;53.80;;
1995;SDS011;38556;47.068;15.408;2023-11-21T10:38:16;53.88;;;49.97;;
1995;SDS011;38556;47.068;15.408;2023-11-21T10:40:47;51.55;;;47.67;;
1995;SDS011;38556;47.068;15.408;2023-11-21T10:43:15;58.78;;;54.55;;
1995;SDS011;38556;47.068;15.408;2023-11-21T10:45:43;56.70;;;52.95;;
1995;SDS011;38556;47.068;15.408;2023-11-21T10:48:12;56.53;;;52.80;;
1995;SDS011;38556;47.068;15.408;2023-11-21T10:50:42;55.50;;;52.10;;
1995;SDS011;38556;47.068;15.408;2023-11-21T10:53:10;52.67;;;49.38;;
1995;SDS011;38556;47.068;15.408;2023-11-21T10:55:39;55.08;;;51.58;;
1995;SDS011;38556;47.068;15.408;2023-11-21T10:58:07;56.28;;;52.45;;
1995;SDS011;38556;47.068;15.408;2023-11-21T11:00:36;56.17;;;52.53;;
1995;SDS011;38556;47.068;15.408;2023-11-21T11:03:06;54.63;;;51.00;;
1995;SDS011;38556;47.068;15.408;2023-11-21T11:05:39;53.00;;;49.25;;
1995;SDS011;38556;47.068;15.408;2023-11-21T11:08:12;52.05;;;48.75;;
1995;SDS011;38556;47.068;15.408;2023-11-21T11:10:45;62.78;;;58.08;;
1995;SDS011;38556;47.068;15.408;2023-11-21T11:13:13;53.63;;;49.95;;
1995;SDS011;38556;47.068;15.408;2023-11-21T11:15:41;53.65;;;50.15;;
1995;SDS011;38556;47.068;15.408;2023-11-21T11:18:09;50.33;;;47.17;;
1995;SDS011;38556;47.068;15.408;2023-11-21T11:20:39;50.65;;;47.20;;
1995;SDS011;38556;47.068;15.408;2023-11-21T11:23:13;50.75;;;47.33;;
1995;SDS011;38556;47.068;15.408;2023-11-21T11:26:01;52.15;;;49.10;;
1995;SDS011;38556;47.068;15.408;2023-11-21T11:28:44;48.33;;;45.33;;
1995;SDS011;38556;47.068;15.408;2023-11-21T11:31:22;46.83;;;43.83;;
1995;SDS011;38556;47.068;15.408;2023-11-21T11:34:07;46.33;;;43.03;;
1995;SDS011;38556;47.068;15.408;2023-11-21T11:36:51;48.60;;;45.25;;
1995;SDS011;38556;47.068;15.408;2023-11-21T11:39:29;42.67;;;39.78;;
1995;SDS011;38556;47.068;15.408;2023-11-21T11:41:59;42.50;;;39.70;;
1995;SDS011;38556;47.068;15.408;2023-11-21T11:44:46;49.55;;;46.20;;
1995;SDS011;38556;47.068;15.408;2023-11-21T11:47:16;45.70;;;42.65;;
1995;SDS011;38556;47.068;15.408;2023-11-21T11:52:42;43.95;;;40.80;;
1995;SDS011;38556;47.068;15.408;2023-11-21T11:55:10;47.75;;;44.50;;
1995;SDS011;38556;47.068;15.408;2023-11-21T11:57:40;44.47;;;41.38;;
1995;SDS011;38556;47.068;15.408;2023-11-21T12:00:10;43.38;;;40.05;;
1995;SDS011;38556;47.068;15.408;2023-11-21T12:02:41;43.33;;;40.22;;
1995;SDS011;38556;47.068;15.408;2023-11-21T12:05:11;42.88;;;40.00;;
1995;SDS011;38556;47.068;15.408;2023-11-21T12:07:43;45.95;;;42.95;;
1995;SDS011;38556;47.068;15.408;2023-11-21T12:10:12;46.85;;;43.85;;
1995;SDS011;38556;47.068;15.408;2023-11-21T12:12:47;43.88;;;40.78;;
1995;SDS011;38556;47.068;15.408;2023-11-21T12:15:16;48.15;;;44.92;;
1995;SDS011;38556;47.068;15.408;2023-11-21T12:17:44;49.97;;;46.13;;
1995;SDS011;38556;47.068;15.408;2023-11-21T12:20:13;45.65;;;42.53;;
1995;SDS011;38556;47.068;15.408;2023-11-21T12:22:43;47.53;;;44.47;;
1995;SDS011;38556;47.068;15.408;2023-11-21T12:25:13;45.33;;;42.53;;
1995;SDS011;38556;47.068;15.408;2023-11-21T12:27:44;46.97;;;43.75;;
1995;SDS011;38556;47.068;15.408;2023-11-21T12:30:14;43.80;;;40.90;;
1995;SDS011;38556;47.068;15.408;2023-11-21T12:32:42;44.30;;;41.33;;
1995;SDS011;38556;47.068;15.408;2023-11-21T12:35:11;44.40;;;41.53;;
1995;SDS011;38556;47.068;15.408;2023-11-21T12:37:40;48.30;;;45.15;;
1995;SDS011;38556;47.068;15.408;2023-11-21T12:40:09;47.20;;;44.20;;
1995;SDS011;38556;47.068;15.408;2023-11-21T12:42:40;47.70;;;44.80;;
1995;SDS011;38556;47.068;15.408;2023-11-21T12:45:19;45.35;;;42.55;;
1995;SDS011;38556;47.068;15.408;2023-11-21T12:47:49;45.30;;;42.42;;
1995;SDS011;38556;47.068;15.408;2023-11-21T12:50:18;45.72;;;42.88;;
1995;SDS011;38556;47.068;15.408;2023-11-21T12:52:49;45.78;;;42.88;;
1995;SDS011;38556;47.068;15.408;2023-11-21T12:55:19;44.75;;;41.92;;
1995;SDS011;38556;47.068;15.408;2023-11-21T12:57:48;41.25;;;38.65;;
1995;SDS011;38556;47.068;15.408;2023-11-21T13:00:18;43.70;;;40.50;;
1995;SDS011;38556;47.068;15.408;2023-11-21T13:02:53;45.70;;;42.60;;
1995;SDS011;38556;47.068;15.408;2023-11-21T13:05:23;45.70;;;42.80;;
1995;SDS011;38556;47.068;15.408;2023-11-21T13:07:51;43.22;;;40.05;;
1995;SDS011;38556;47.068;15.408;2023-11-21T13:10:21;41.08;;;38.28;;
1995;SDS011;38556;47.068;15.408;2023-11-21T13:12:51;41.20;;;38.58;;
1995;SDS011;38556;47.068;15.408;2023-11-21T13:15:22;49.38;;;45.63;;
1995;SDS011;38556;47.068;15.408;2023-11-21T13:17:50;43.63;;;40.50;;
1995;SDS011;38556;47.068;15.408;2023-11-21T13:20:19;41.25;;;38.28;;
1995;SDS011;38556;47.068;15.408;2023-11-21T13:22:48;42.83;;;39.83;;
1995;SDS011;38556;47.068;15.408;2023-11-21T13:25:17;42.25;;;39.10;;
1995;SDS011;38556;47.068;15.408;2023-11-21T13:27:45;42.75;;;39.40;;
1995;SDS011;38556;47.068;15.408;2023-11-21T13:30:13;41.30;;;38.67;;
1995;SDS011;38556;47.068;15.408;2023-11-21T13:32:49;46.70;;;43.40;;
1995;SDS011;38556;47.068;15.408;2023-11-21T13:35:17;45.03;;;41.92;;
1995;SDS011;38556;47.068;15.408;2023-11-21T13:37:56;44.88;;;41.88;;
1995;SDS011;38556;47.068;15.408;2023-11-21T13:40:25;44.40;;;41.50;;
1995;SDS011;38556;47.068;15.408;2023-11-21T13:42:53;42.55;;;39.70;;
1995;SDS011;38556;47.068;15.408;2023-11-21T13:45:24;45.17;;;41.75;;
1995;SDS011;38556;47.068;15.408;2023-11-21T13:47:54;43.70;;;40.53;;
1995;SDS011;38556;47.068;15.408;2023-11-21T13:50:24;42.95;;;39.58;;
1995;SDS011;38556;47.068;15.408;2023-11-21T13:52:58;39.33;;;36.35;;
1995;SDS011;38556;47.068;15.408;2023-11-21T13:55:29;39.55;;;36.85;;
1995;SDS011;38556;47.068;15.408;2023-11-21T13:57:56;40.38;;;37.50;;
1995;SDS011;38556;47.068;15.408;2023-11-21T14:00:25;39.72;;;36.75;;
1995;SDS011;38556;47.068;15.408;2023-11-21T14:03:12;37.67;;;34.88;;
1995;SDS011;38556;47.068;15.408;2023-11-21T14:05:46;41.38;;;38.25;;
1995;SDS011;38556;47.068;15.408;2023-11-21T14:08:17;39.15;;;36.38;;
1995;SDS011;38556;47.068;15.408;2023-11-21T14:10:47;39.80;;;36.97;;
1995;SDS011;38556;47.068;15.408;2023-11-21T14:13:20;39.03;;;36.20;;
1995;SDS011;38556;47.068;15.408;2023-11-21T14:15:49;41.45;;;38.42;;
1995;SDS011;38556;47.068;15.408;2023-11-21T14:18:24;43.40;;;39.95;;
1995;SDS011;38556;47.068;15.408;2023-11-21T14:20:56;45.45;;;42.00;;
1995;SDS011;38556;47.068;15.408;2023-11-21T14:23:23;43.40;;;40.33;;
1995;SDS011;38556;47.068;15.408;2023-11-21T14:25:51;40.85;;;37.95;;
1995;SDS011;38556;47.068;15.408;2023-11-21T14:28:19;40.10;;;37.10;;
1995;SDS011;38556;47.068;15.408;2023-11-21T14:30:46;43.35;;;40.10;;
1995;SDS011;38556;47.068;15.408;2023-11-21T14:33:14;46.22;;;42.38;;